Portada
METAR-TAF:

METAR-TAF

Aeroports :

Jerez de la Frontera, Espanya

latitud: 36-45N, longitud: 006-04W, altitud: 27 m

Observació

L'informe es va fer fa 37 minuts, a les 08:00 UTC
Vent 7 kt del Sud/Sud-Oest, variant entre Sud i Oest/Sud-Oest
Temperatura 22°C
Humitat 78%
Pressió 1015 hPa
Visibilitat 10 km o més
Núvols disperses a una alçada de 1000 ft
Núvols disperses a una alçada de 1500 ft

METAR: LEJR 050800Z 21007KT 180V250 9999 SCT010 SCT015 22/18 Q1015

Hora: 10:37 (08:37 UTC)

Pronòstic

L'informe es va fer fa 3 hores i 37 minuts, a les 05:00 UTC
Pronòstic vàlid del 05 a les 06 UTC al 06 a les 06 UTC
Vent 9 kt del Oest/Sud-Oest
Visibilitat 10 km o més
sense núvols per sota de 1500 mi sense presència de cumulonimbus.
Probabilitat 40% :
Temporalment
l' 05 a les 06 UTC al 05 a les 08 UTC
Visibilitat: 4000 m
Cel ennuvolat a una alçada de 1000 ft
boirina

TAF: LEJR 050500Z 0506/0606 25009KT CAVOK TX28/0513Z TN18/0600Z PROB40 TEMPO 0506/0508 4000 BR BKN010

Observacions i pronòstics meteorològics de més de 4000 aeroports (METAR i TAF).

Les estacions disponibles són els punts grocs i vermells al mapa.

Posi el ratolí al punt desitjat per veure el nom de l'estació.

Feu clic per veure les observacions i els pronòstics meteorològics.

Per canviar el mapa: feu clic els botons verds amb una creu de color negre per apropar; al botó verd amb un guió per allunyar la imatge; o en les fletxes verdes per a mapes adjacents.


METAR-TAF: